createdAt,value
2023-01-29T00:00:11.929Z,102279.69
2023-01-29T00:02:38.292Z,102276.94
2023-01-29T00:05:20.997Z,102282.25
2023-01-29T00:07:52.699Z,102280.16
2023-01-29T00:10:19.102Z,102272.31
2023-01-29T00:12:45.474Z,102267.50
2023-01-29T00:15:12.168Z,102265.44
2023-01-29T00:17:38.536Z,102264.50
2023-01-29T00:20:05.355Z,102259.94
2023-01-29T00:22:31.742Z,102264.50
2023-01-29T00:24:58.192Z,102261.50
2023-01-29T00:27:24.556Z,102259.22
2023-01-29T00:30:09.220Z,102258.53
2023-01-29T00:32:36.047Z,102264.50
2023-01-29T00:35:02.640Z,102260.84
2023-01-29T00:37:28.996Z,102262.22
2023-01-29T00:39:55.365Z,102256.69
2023-01-29T00:42:40.411Z,102253.94
2023-01-29T00:45:07.364Z,102252.09
2023-01-29T00:47:33.996Z,102251.16
2023-01-29T00:50:05.086Z,102259.94
2023-01-29T00:52:31.504Z,102254.84
2023-01-29T00:54:59.723Z,102248.41
2023-01-29T00:57:27.859Z,102253.94
2023-01-29T00:59:54.354Z,102255.09
2023-01-29T01:02:39.308Z,102252.53
2023-01-29T01:05:07.664Z,102256.25
2023-01-29T01:07:34.240Z,102268.00
2023-01-29T01:10:19.003Z,102270.31
2023-01-29T01:15:30.577Z,102270.06
2023-01-29T01:17:59.037Z,102266.59
2023-01-29T01:20:27.052Z,102263.81
2023-01-29T01:22:54.249Z,102259.22
2023-01-29T01:25:21.830Z,102243.09
2023-01-29T01:27:48.238Z,102236.88
2023-01-29T01:30:16.486Z,102230.44
2023-01-29T01:32:42.989Z,102219.84
2023-01-29T01:35:10.420Z,102211.53
2023-01-29T01:37:37.587Z,102216.81
2023-01-29T01:40:12.761Z,102214.06
2023-01-29T01:42:40.329Z,102224.41
2023-01-29T01:45:10.268Z,102213.16
2023-01-29T01:48:07.699Z,102211.75
2023-01-29T01:50:53.834Z,102219.84
2023-01-29T01:53:26.073Z,102215.69
2023-01-29T01:55:59.868Z,102215.69
2023-01-29T01:58:30.010Z,102228.13
2023-01-29T02:00:56.676Z,102230.66
2023-01-29T02:03:42.851Z,102227.41
2023-01-29T02:06:28.466Z,102229.25
2023-01-29T02:09:17.169Z,102232.28
2023-01-29T02:11:43.628Z,102230.44
2023-01-29T02:14:11.034Z,102230.19
2023-01-29T02:16:37.540Z,102229.06
2023-01-29T02:19:06.296Z,102239.44
2023-01-29T02:21:52.987Z,102234.31
2023-01-29T02:24:48.972Z,102236.91
2023-01-29T02:27:19.828Z,102235.94
2023-01-29T02:30:03.935Z,102236.22
2023-01-29T02:32:54.241Z,102237.78
2023-01-29T02:35:40.351Z,102237.81
2023-01-29T02:38:12.267Z,102241.03
2023-01-29T02:41:22.331Z,102238.72
2023-01-29T02:44:15.253Z,102252.31
2023-01-29T02:46:47.565Z,102243.81
2023-01-29T02:49:24.328Z,102246.78
2023-01-29T02:52:03.611Z,102243.56
2023-01-29T02:54:48.824Z,102248.38
2023-01-29T02:57:25.270Z,102248.66
2023-01-29T03:00:08.598Z,102245.63
2023-01-29T03:02:43.156Z,102244.50
2023-01-29T03:05:15.263Z,102244.25
2023-01-29T03:07:44.669Z,102240.56
2023-01-29T03:10:23.916Z,102235.47
2023-01-29T03:12:55.500Z,102225.81
2023-01-29T03:16:01.338Z,102229.50
2023-01-29T03:18:31.993Z,102232.25
2023-01-29T03:21:02.123Z,102230.44
2023-01-29T03:23:49.147Z,102231.13
2023-01-29T03:26:35.543Z,102226.25
2023-01-29T03:29:22.175Z,102229.28
2023-01-29T03:32:04.697Z,102238.25
2023-01-29T03:34:38.808Z,102243.75
2023-01-29T03:37:09.316Z,102246.31
2023-01-29T03:39:36.820Z,102249.31
2023-01-29T03:42:15.328Z,102244.69
2023-01-29T03:44:51.627Z,102233.41
2023-01-29T03:47:24.912Z,102224.19
2023-01-29T03:50:05.724Z,102227.19
2023-01-29T03:52:49.655Z,102230.19
2023-01-29T03:55:35.213Z,102234.13
2023-01-29T03:58:14.540Z,102229.06
2023-01-29T04:00:45.377Z,102227.19
2023-01-29T04:03:19.638Z,102228.78
2023-01-29T04:06:05.317Z,102224.41
2023-01-29T04:08:34.279Z,102218.84
2023-01-29T04:11:04.922Z,102216.53
2023-01-29T04:13:33.663Z,102209.84
2023-01-29T04:16:01.075Z,102215.41
2023-01-29T04:18:27.756Z,102207.09
2023-01-29T04:20:54.382Z,102203.16
2023-01-29T04:23:22.826Z,102190.47
2023-01-29T04:25:57.469Z,102184.25
2023-01-29T04:28:28.896Z,102176.88
2023-01-29T04:31:07.828Z,102182.19
2023-01-29T04:33:57.393Z,102185.66
2023-01-29T04:36:35.460Z,102180.13
2023-01-29T04:39:17.291Z,102184.28
2023-01-29T04:41:43.779Z,102172.66
2023-01-29T04:44:16.705Z,102177.25
2023-01-29T04:47:09.276Z,102174.97
2023-01-29T04:49:37.701Z,102162.97
2023-01-29T04:52:13.099Z,102160.84
2023-01-29T04:54:54.670Z,102168.50
2023-01-29T04:57:27.014Z,102166.16
2023-01-29T05:00:05.105Z,102170.78
2023-01-29T05:02:34.584Z,102158.78
2023-01-29T05:05:01.210Z,102149.34
2023-01-29T05:07:28.820Z,102135.28
2023-01-29T05:09:56.113Z,102130.25
2023-01-29T05:12:25.524Z,102134.84
2023-01-29T05:14:53.558Z,102127.25
2023-01-29T05:17:20.533Z,102134.81
2023-01-29T05:19:47.313Z,102129.09
2023-01-29T05:22:15.833Z,102120.56
2023-01-29T05:24:42.232Z,102125.66
2023-01-29T05:27:33.658Z,102111.78
2023-01-29T05:30:00.013Z,102126.31
2023-01-29T05:32:26.391Z,102126.75
2023-01-29T05:34:52.762Z,102125.53
2023-01-29T05:37:19.243Z,102119.06
2023-01-29T05:39:45.693Z,102121.81
2023-01-29T05:42:12.056Z,102124.63
2023-01-29T05:44:38.438Z,102127.13
2023-01-29T05:47:04.835Z,102126.81
2023-01-29T05:49:31.210Z,102135.13
2023-01-29T05:51:57.584Z,102137.25
2023-01-29T05:54:23.967Z,102147.63
2023-01-29T05:56:50.364Z,102140.22
2023-01-29T05:59:16.892Z,102139.59
2023-01-29T06:01:43.320Z,102141.19
2023-01-29T06:04:09.768Z,102143.50
2023-01-29T06:06:36.146Z,102148.56
2023-01-29T06:09:02.544Z,102154.06
2023-01-29T06:11:29.062Z,102158.22
2023-01-29T06:13:55.493Z,102166.91
2023-01-29T06:16:21.918Z,102172.44
2023-01-29T06:18:48.326Z,102175.16
2023-01-29T06:21:14.773Z,102163.47
2023-01-29T06:23:41.272Z,102162.78
2023-01-29T06:26:10.846Z,102172.19
2023-01-29T06:28:37.358Z,102167.50
2023-01-29T06:31:23.712Z,102163.63
2023-01-29T06:33:51.524Z,102150.69
2023-01-29T06:36:17.950Z,102146.25
2023-01-29T06:38:44.353Z,102154.56
2023-01-29T06:41:11.928Z,102158.81
2023-01-29T06:43:38.933Z,102158.59
2023-01-29T06:46:07.737Z,102148.56
2023-01-29T06:48:34.475Z,102152.22
2023-01-29T06:51:05.902Z,102166.06
2023-01-29T06:53:34.092Z,102167.84
2023-01-29T06:56:00.570Z,102160.41
2023-01-29T06:58:27.022Z,102160.44
2023-01-29T07:00:53.444Z,102163.91
2023-01-29T07:03:21.024Z,102159.16
2023-01-29T07:05:52.311Z,102162.09
2023-01-29T07:08:19.388Z,102168.78
2023-01-29T07:10:45.827Z,102156.31
2023-01-29T07:13:12.198Z,102154.25
2023-01-29T07:15:38.557Z,102157.25
2023-01-29T07:18:11.781Z,102164.16
2023-01-29T07:20:42.070Z,102159.56
2023-01-29T07:23:15.272Z,102151.00
2023-01-29T07:25:41.881Z,102151.44
2023-01-29T07:28:08.352Z,102149.34
2023-01-29T07:30:35.031Z,102133.38
2023-01-29T07:33:07.144Z,102142.13
2023-01-29T07:35:41.710Z,102159.34
2023-01-29T07:38:09.525Z,102134.25
2023-01-29T07:40:36.030Z,102123.00
2023-01-29T07:43:05.045Z,102139.63
2023-01-29T07:45:31.968Z,102154.91
2023-01-29T07:47:58.390Z,102154.25
2023-01-29T07:50:26.495Z,102158.59
2023-01-29T07:52:56.501Z,102151.84
2023-01-29T07:55:23.338Z,102147.63
2023-01-29T07:58:00.474Z,102141.69
2023-01-29T08:00:27.312Z,102142.66
2023-01-29T08:02:53.862Z,102144.31
2023-01-29T08:05:20.224Z,102131.31
2023-01-29T08:07:54.134Z,102131.16
2023-01-29T08:10:27.634Z,102125.94
2023-01-29T08:12:58.428Z,102124.88
2023-01-29T08:15:24.963Z,102121.69
2023-01-29T08:17:57.737Z,102130.38
2023-01-29T08:20:24.597Z,102125.00
2023-01-29T08:22:59.107Z,102138.25
2023-01-29T08:25:25.718Z,102134.06
2023-01-29T08:27:52.329Z,102140.97
2023-01-29T08:30:18.749Z,102136.81
2023-01-29T08:32:45.132Z,102137.72
2023-01-29T08:35:11.497Z,102126.25
2023-01-29T08:37:37.893Z,102130.63
2023-01-29T08:40:04.657Z,102117.03
2023-01-29T08:42:31.031Z,102108.28
2023-01-29T08:44:57.393Z,102108.28
2023-01-29T08:47:23.775Z,102100.06
2023-01-29T08:49:50.127Z,102087.97
2023-01-29T08:52:16.572Z,102087.84
2023-01-29T08:54:42.930Z,102088.94
2023-01-29T08:57:09.308Z,102092.84
2023-01-29T08:59:35.691Z,102091.28
2023-01-29T09:02:02.111Z,102087.78
2023-01-29T09:04:28.593Z,102085.66
2023-01-29T09:06:55.152Z,102074.91
2023-01-29T09:09:21.508Z,102065.31
2023-01-29T09:11:47.931Z,102072.34
2023-01-29T09:14:14.648Z,102066.44
2023-01-29T09:16:41.036Z,102064.56
2023-01-29T09:19:08.212Z,102070.22
2023-01-29T09:21:34.597Z,102069.84
2023-01-29T09:24:00.972Z,102062.06
2023-01-29T09:26:27.401Z,102050.19
2023-01-29T09:28:53.790Z,102058.25
2023-01-29T09:31:20.339Z,102059.47
2023-01-29T09:33:46.853Z,102054.91
2023-01-29T09:36:13.325Z,102057.53
2023-01-29T09:38:39.834Z,102047.53
2023-01-29T09:41:16.560Z,102047.38
2023-01-29T09:43:49.249Z,102054.13
2023-01-29T09:46:41.707Z,102050.41
2023-01-29T09:49:17.321Z,102042.84
2023-01-29T09:51:47.896Z,102039.59
2023-01-29T09:54:17.315Z,102044.41
2023-01-29T09:56:45.565Z,102040.72
2023-01-29T09:59:13.407Z,102034.78
2023-01-29T10:02:01.562Z,102041.84
2023-01-29T10:04:55.592Z,102038.88
2023-01-29T10:07:46.992Z,102047.56
2023-01-29T10:10:21.468Z,102046.66
2023-01-29T10:13:07.939Z,102047.44
2023-01-29T10:15:49.914Z,102050.81
2023-01-29T10:18:47.393Z,102042.97
2023-01-29T10:21:32.369Z,102043.88
2023-01-29T10:24:26.384Z,102049.75
2023-01-29T10:26:53.379Z,102038.69
2023-01-29T10:29:21.978Z,102036.84
2023-01-29T10:31:52.501Z,102035.34
2023-01-29T10:34:18.820Z,102029.94
2023-01-29T10:36:46.858Z,102041.47
2023-01-29T10:39:21.278Z,102042.88
2023-01-29T10:41:54.101Z,102039.69
2023-01-29T10:44:30.434Z,102024.25
2023-01-29T10:47:21.541Z,102014.84
2023-01-29T10:50:19.536Z,102000.66
2023-01-29T10:53:01.164Z,101994.13
2023-01-29T10:55:39.692Z,101990.88
2023-01-29T10:58:21.847Z,101981.75
2023-01-29T11:00:48.248Z,101978.41
2023-01-29T11:03:27.918Z,101976.69
2023-01-29T11:06:13.049Z,101982.78
2023-01-29T11:08:51.457Z,101982.59
2023-01-29T11:11:19.370Z,101981.38
2023-01-29T11:13:50.598Z,101978.50
2023-01-29T11:16:17.178Z,101972.41
2023-01-29T11:19:01.080Z,101967.81
2023-01-29T11:21:29.544Z,101970.97
2023-01-29T11:24:07.194Z,101964.66
2023-01-29T11:26:36.335Z,101959.16
2023-01-29T11:29:03.043Z,101960.09
2023-01-29T11:31:36.083Z,101955.50
2023-01-29T11:34:20.132Z,101952.25
2023-01-29T11:36:46.852Z,101946.53
2023-01-29T11:39:23.048Z,101943.59
2023-01-29T11:42:00.368Z,101943.19
2023-01-29T11:44:32.889Z,101926.47
2023-01-29T11:47:11.578Z,101913.81
2023-01-29T11:49:38.523Z,101919.84
2023-01-29T11:52:07.653Z,101917.19
2023-01-29T11:54:40.831Z,101904.13
2023-01-29T11:57:27.786Z,101905.78
2023-01-29T11:59:55.887Z,101896.63
2023-01-29T12:02:42.303Z,101897.03
2023-01-29T12:05:17.680Z,101885.81
2023-01-29T12:07:46.212Z,101883.16
2023-01-29T12:10:35.820Z,101880.28
2023-01-29T12:13:11.933Z,101877.75
2023-01-29T12:15:39.329Z,101867.22
2023-01-29T12:18:18.118Z,101862.44
2023-01-29T12:21:00.222Z,101847.91
2023-01-29T12:23:42.023Z,101838.09
2023-01-29T12:26:15.880Z,101827.34
2023-01-29T12:29:07.382Z,101814.63
2023-01-29T12:31:33.757Z,101820.22
2023-01-29T12:34:10.693Z,101805.88
2023-01-29T12:36:53.132Z,101810.16
2023-01-29T12:39:19.728Z,101817.00
2023-01-29T12:42:04.562Z,101808.81
2023-01-29T12:44:42.255Z,101806.31
2023-01-29T12:47:19.232Z,101805.75
2023-01-29T12:49:50.924Z,101798.69
2023-01-29T12:52:41.772Z,101800.97
2023-01-29T12:55:12.462Z,101790.78
2023-01-29T12:57:59.823Z,101797.00
2023-01-29T13:00:46.866Z,101792.16
2023-01-29T13:03:17.139Z,101794.13
2023-01-29T13:06:10.529Z,101790.63
2023-01-29T13:08:41.070Z,101789.22
2023-01-29T13:11:19.899Z,101777.53
2023-01-29T13:13:53.968Z,101779.22
2023-01-29T13:16:23.858Z,101784.00
2023-01-29T13:18:56.187Z,101778.75
2023-01-29T13:21:29.853Z,101778.19
2023-01-29T13:24:04.633Z,101771.19
2023-01-29T13:26:31.731Z,101768.19
2023-01-29T13:28:58.644Z,101764.00
2023-01-29T13:31:35.633Z,101771.91
2023-01-29T13:34:20.657Z,101767.59
2023-01-29T13:36:50.312Z,101762.94
2023-01-29T13:39:29.628Z,101762.69
2023-01-29T13:41:57.190Z,101773.94
2023-01-29T13:44:23.479Z,101768.69
2023-01-29T13:47:01.410Z,101765.31
2023-01-29T13:49:31.748Z,101759.81
2023-01-29T13:51:58.750Z,101752.03
2023-01-29T13:54:26.478Z,101761.91
2023-01-29T13:56:55.763Z,101755.72
2023-01-29T13:59:52.897Z,101753.88
2023-01-29T14:02:24.954Z,101763.69
2023-01-29T14:04:51.530Z,101755.56
2023-01-29T14:07:39.867Z,101745.38
2023-01-29T14:10:23.357Z,101747.97
2023-01-29T14:13:11.274Z,101740.28
2023-01-29T14:15:39.527Z,101741.16
2023-01-29T14:18:15.642Z,101735.22
2023-01-29T14:20:48.076Z,101738.09
2023-01-29T14:23:36.831Z,101740.94
2023-01-29T14:26:05.543Z,101735.88
2023-01-29T14:28:34.091Z,101735.75
2023-01-29T14:31:00.901Z,101732.94
2023-01-29T14:33:32.741Z,101731.09
2023-01-29T14:35:59.823Z,101726.38
2023-01-29T14:38:27.883Z,101727.47
2023-01-29T14:41:04.847Z,101735.31
2023-01-29T14:43:31.436Z,101731.50
2023-01-29T14:46:35.697Z,101724.06
2023-01-29T14:49:02.607Z,101725.69
2023-01-29T14:51:34.652Z,101715.84
2023-01-29T14:54:25.293Z,101707.31
2023-01-29T14:56:54.399Z,101707.13
2023-01-29T14:59:37.291Z,101706.00
2023-01-29T15:02:18.510Z,101710.72
2023-01-29T15:04:50.080Z,101713.06
2023-01-29T15:07:34.130Z,101710.38
2023-01-29T15:10:24.059Z,101703.84
2023-01-29T15:13:00.780Z,101700.31
2023-01-29T15:15:39.491Z,101705.41
2023-01-29T15:18:12.675Z,101692.91
2023-01-29T15:20:40.682Z,101695.94
2023-01-29T15:23:26.216Z,101691.63
2023-01-29T15:25:57.361Z,101692.91
2023-01-29T15:28:24.111Z,101694.38
2023-01-29T15:30:57.646Z,101693.66
2023-01-29T15:33:24.210Z,101688.16
2023-01-29T15:36:06.923Z,101692.00
2023-01-29T15:38:33.978Z,101696.34
2023-01-29T15:41:13.860Z,101689.97
2023-01-29T15:43:44.537Z,101686.91
2023-01-29T15:46:16.686Z,101683.47
2023-01-29T15:48:44.337Z,101684.97
2023-01-29T15:51:18.158Z,101686.38
2023-01-29T15:53:51.560Z,101681.97
2023-01-29T15:56:21.545Z,101684.16
2023-01-29T15:58:49.219Z,101678.78
2023-01-29T16:01:15.639Z,101678.06
2023-01-29T16:03:42.583Z,101671.88
2023-01-29T16:06:09.258Z,101666.19
2023-01-29T16:08:36.039Z,101658.69
2023-01-29T16:11:05.029Z,101653.06
2023-01-29T16:13:33.946Z,101652.91
2023-01-29T16:16:08.251Z,101652.91
2023-01-29T16:18:41.093Z,101650.88
2023-01-29T16:21:30.785Z,101641.00
2023-01-29T16:24:10.013Z,101646.50
2023-01-29T16:26:39.390Z,101633.91
2023-01-29T16:29:07.777Z,101630.63
2023-01-29T16:31:35.777Z,101634.59
2023-01-29T16:34:26.000Z,101623.50
2023-01-29T16:36:54.537Z,101614.22
2023-01-29T16:39:23.547Z,101610.94
2023-01-29T16:42:30.245Z,101613.16
2023-01-29T16:45:03.848Z,101608.06
2023-01-29T16:47:38.604Z,101611.72
2023-01-29T16:50:27.049Z,101601.00
2023-01-29T16:52:58.007Z,101600.06
2023-01-29T16:55:25.503Z,101597.84
2023-01-29T16:57:55.817Z,101601.00
2023-01-29T17:00:27.499Z,101585.91
2023-01-29T17:03:02.949Z,101579.00
2023-01-29T17:05:31.666Z,101581.72
2023-01-29T17:07:58.766Z,101573.88
2023-01-29T17:10:27.437Z,101576.88
2023-01-29T17:12:59.520Z,101580.13
2023-01-29T17:15:31.049Z,101583.03
2023-01-29T17:17:57.571Z,101583.81
2023-01-29T17:20:24.223Z,101587.41
2023-01-29T17:22:50.620Z,101582.50
2023-01-29T17:25:18.794Z,101577.41
2023-01-29T17:27:51.391Z,101586.91
2023-01-29T17:30:19.739Z,101572.50
2023-01-29T17:32:47.496Z,101584.91
2023-01-29T17:35:15.601Z,101570.84
2023-01-29T17:37:42.293Z,101575.41
2023-01-29T17:40:18.869Z,101574.66
2023-01-29T17:42:45.297Z,101580.50
2023-01-29T17:45:11.673Z,101571.97
2023-01-29T17:47:38.057Z,101566.50
2023-01-29T17:50:17.179Z,101569.97
2023-01-29T17:52:43.591Z,101563.44
2023-01-29T17:55:09.969Z,101565.81
2023-01-29T17:57:36.334Z,101555.78
2023-01-29T18:00:02.732Z,101547.00
2023-01-29T18:02:30.059Z,101541.19
2023-01-29T18:04:56.577Z,101539.88
2023-01-29T18:07:22.963Z,101552.09
2023-01-29T18:09:49.314Z,101546.66
2023-01-29T18:12:15.718Z,101550.31
2023-01-29T18:14:42.075Z,101538.28
2023-01-29T18:17:08.463Z,101525.53
2023-01-29T18:19:34.865Z,101523.16
2023-01-29T18:22:01.434Z,101518.22
2023-01-29T18:24:27.909Z,101514.53
2023-01-29T18:26:54.350Z,101502.56
2023-01-29T18:29:20.886Z,101493.59
2023-01-29T18:31:50.582Z,101492.53
2023-01-29T18:34:17.177Z,101484.34
2023-01-29T18:36:46.910Z,101485.75
2023-01-29T18:39:16.431Z,101472.66
2023-01-29T18:41:42.843Z,101483.22
2023-01-29T18:44:10.583Z,101478.66
2023-01-29T18:46:37.027Z,101475.19
2023-01-29T18:49:05.161Z,101473.91
2023-01-29T18:51:31.764Z,101479.75
2023-01-29T18:53:58.164Z,101485.97
2023-01-29T18:56:24.747Z,101480.66
2023-01-29T18:58:55.822Z,101471.19
2023-01-29T19:01:23.323Z,101463.19
2023-01-29T19:03:49.821Z,101466.47
2023-01-29T19:06:16.318Z,101464.28
2023-01-29T19:08:43.858Z,101452.25
2023-01-29T19:11:12.373Z,101450.41
2023-01-29T19:13:38.846Z,101456.97
2023-01-29T19:16:09.345Z,101451.88
2023-01-29T19:18:36.133Z,101442.38
2023-01-29T19:21:15.547Z,101450.75
2023-01-29T19:23:43.341Z,101448.53
2023-01-29T19:26:09.961Z,101442.72
2023-01-29T19:28:36.416Z,101440.13
2023-01-29T19:31:03.452Z,101434.69
2023-01-29T19:33:30.014Z,101426.69
2023-01-29T19:35:57.351Z,101414.28
2023-01-29T19:38:23.865Z,101422.28
2023-01-29T19:40:50.863Z,101409.19
2023-01-29T19:43:18.036Z,101409.38
2023-01-29T19:45:50.205Z,101408.28
2023-01-29T19:48:21.172Z,101400.44
2023-01-29T19:50:55.280Z,101402.66
2023-01-29T19:53:22.747Z,101390.97
2023-01-29T19:56:00.372Z,101386.94
2023-01-29T19:58:27.111Z,101380.22
2023-01-29T20:00:57.302Z,101378.59
2023-01-29T20:03:23.879Z,101371.69
2023-01-29T20:05:50.324Z,101367.69
2023-01-29T20:08:17.229Z,101363.69
2023-01-29T20:10:47.818Z,101345.47
2023-01-29T20:13:15.752Z,101348.03
2023-01-29T20:15:45.841Z,101338.56
2023-01-29T20:18:13.299Z,101329.09
2023-01-29T20:20:44.333Z,101328.56
2023-01-29T20:23:11.494Z,101321.09
2023-01-29T20:25:38.276Z,101312.50
2023-01-29T20:28:05.873Z,101314.16
2023-01-29T20:30:33.412Z,101306.50
2023-01-29T20:33:01.656Z,101300.13
2023-01-29T20:35:32.444Z,101291.59
2023-01-29T20:37:59.120Z,101288.84
2023-01-29T20:40:26.057Z,101287.38
2023-01-29T20:42:52.934Z,101291.56
2023-01-29T20:45:19.867Z,101286.84
2023-01-29T20:47:46.333Z,101289.91
2023-01-29T20:50:14.907Z,101280.63
2023-01-29T20:52:42.247Z,101270.78
2023-01-29T20:55:10.925Z,101258.75
2023-01-29T20:57:37.549Z,101264.41
2023-01-29T21:00:08.704Z,101256.75
2023-01-29T21:02:35.173Z,101256.56
2023-01-29T21:05:01.576Z,101270.06
2023-01-29T21:07:28.021Z,101278.81
2023-01-29T21:09:54.436Z,101294.47
2023-01-29T21:12:20.885Z,101300.16
2023-01-29T21:14:47.245Z,101293.94
2023-01-29T21:17:13.641Z,101290.66
2023-01-29T21:19:40.009Z,101278.78
2023-01-29T21:22:06.399Z,101268.59
2023-01-29T21:24:32.884Z,101256.19
2023-01-29T21:26:59.236Z,101237.97
2023-01-29T21:29:25.675Z,101240.88
2023-01-29T21:31:52.078Z,101235.41
2023-01-29T21:34:18.624Z,101244.56
2023-01-29T21:36:46.689Z,101250.38
2023-01-29T21:39:20.792Z,101259.69
2023-01-29T21:42:07.307Z,101259.84
2023-01-29T21:44:33.941Z,101253.25
2023-01-29T21:47:00.913Z,101265.31
2023-01-29T21:49:27.606Z,101275.91
2023-01-29T21:51:54.588Z,101282.09
2023-01-29T21:54:21.079Z,101277.19
2023-01-29T21:56:47.622Z,101278.78
2023-01-29T21:59:14.020Z,101263.84
2023-01-29T22:01:40.507Z,101273.69
2023-01-29T22:04:08.535Z,101271.13
2023-01-29T22:06:34.921Z,101262.19
2023-01-29T22:09:01.293Z,101247.59
2023-01-29T22:11:28.339Z,101260.94
2023-01-29T22:13:54.718Z,101254.00
2023-01-29T22:16:21.085Z,101269.09
2023-01-29T22:18:49.369Z,101271.84
2023-01-29T22:21:15.741Z,101265.63
2023-01-29T22:23:42.113Z,101255.44
2023-01-29T22:26:09.785Z,101260.53
2023-01-29T22:28:36.286Z,101255.59
2023-01-29T22:31:03.668Z,101240.09
2023-01-29T22:33:30.381Z,101242.09
2023-01-29T22:35:57.057Z,101242.09
2023-01-29T22:38:23.800Z,101238.84
2023-01-29T22:40:51.138Z,101250.84
2023-01-29T22:43:17.699Z,101247.38
2023-01-29T22:45:44.553Z,101242.63
2023-01-29T22:48:11.697Z,101235.72
2023-01-29T22:50:38.954Z,101224.97
2023-01-29T22:53:05.781Z,101205.25
2023-01-29T22:55:32.467Z,101206.41
2023-01-29T22:57:58.981Z,101191.59
2023-01-29T23:00:25.444Z,101173.72
2023-01-29T23:02:51.824Z,101160.59
2023-01-29T23:05:18.501Z,101135.41
2023-01-29T23:07:45.155Z,101143.44
2023-01-29T23:10:14.138Z,101121.91
2023-01-29T23:12:40.621Z,101114.63
2023-01-29T23:15:07.542Z,101084.00
2023-01-29T23:17:34.092Z,101056.09
2023-01-29T23:20:00.643Z,101045.72
2023-01-29T23:22:27.060Z,101043.72
2023-01-29T23:24:53.471Z,101059.56
2023-01-29T23:27:20.003Z,101080.88
2023-01-29T23:29:47.639Z,101125.34
2023-01-29T23:32:19.462Z,101104.88
2023-01-29T23:34:45.937Z,101113.09
2023-01-29T23:37:12.309Z,101082.44
2023-01-29T23:39:38.705Z,101075.50
2023-01-29T23:42:05.256Z,101075.50
2023-01-29T23:44:31.674Z,101068.72
2023-01-29T23:46:58.102Z,101066.34
2023-01-29T23:49:24.469Z,101054.50
2023-01-29T23:51:51.085Z,101057.41
2023-01-29T23:54:17.734Z,101044.97
2023-01-29T23:56:45.024Z,101038.94
2023-01-29T23:59:12.175Z,101026.84
